sensor_id;sensor_type;location;lat;lon;timestamp;temperature;humidity
18297;DHT22;18066;52.106;5.534;2022-12-11T00:01:15;3.60;99.90
18297;DHT22;18066;52.106;5.534;2022-12-11T00:03:43;3.70;99.90
18297;DHT22;18066;52.106;5.534;2022-12-11T00:06:12;3.70;99.90
18297;DHT22;18066;52.106;5.534;2022-12-11T00:08:41;3.70;99.90
18297;DHT22;18066;52.106;5.534;2022-12-11T00:11:08;3.70;99.90
18297;DHT22;18066;52.106;5.534;2022-12-11T00:13:35;3.60;99.90
18297;DHT22;18066;52.106;5.534;2022-12-11T00:16:02;3.60;99.90
18297;DHT22;18066;52.106;5.534;2022-12-11T00:18:30;3.60;99.90
18297;DHT22;18066;52.106;5.534;2022-12-11T00:20:59;3.40;99.90
18297;DHT22;18066;52.106;5.534;2022-12-11T00:23:26;3.40;99.90
18297;DHT22;18066;52.106;5.534;2022-12-11T00:25:55;3.30;99.90
18297;DHT22;18066;52.106;5.534;2022-12-11T00:28:22;3.20;99.90
18297;DHT22;18066;52.106;5.534;2022-12-11T00:30:49;3.40;99.90
18297;DHT22;18066;52.106;5.534;2022-12-11T00:33:16;3.40;99.90
18297;DHT22;18066;52.106;5.534;2022-12-11T00:35:45;3.30;99.90
18297;DHT22;18066;52.106;5.534;2022-12-11T00:38:13;3.50;99.90
18297;DHT22;18066;52.106;5.534;2022-12-11T00:40:41;3.30;99.90
18297;DHT22;18066;52.106;5.534;2022-12-11T00:43:09;3.20;99.90
18297;DHT22;18066;52.106;5.534;2022-12-11T00:45:37;3.10;99.90
18297;DHT22;18066;52.106;5.534;2022-12-11T00:48:05;3.30;99.90
18297;DHT22;18066;52.106;5.534;2022-12-11T00:50:33;2.90;99.90
18297;DHT22;18066;52.106;5.534;2022-12-11T00:53:00;3.10;99.90
18297;DHT22;18066;52.106;5.534;2022-12-11T00:55:27;2.70;99.90
18297;DHT22;18066;52.106;5.534;2022-12-11T00:57:54;3.20;99.90
18297;DHT22;18066;52.106;5.534;2022-12-11T01:00:23;3.20;99.90
18297;DHT22;18066;52.106;5.534;2022-12-11T01:02:50;3.20;99.90
18297;DHT22;18066;52.106;5.534;2022-12-11T01:05:17;3.10;99.90
18297;DHT22;18066;52.106;5.534;2022-12-11T01:07:44;3.20;99.90
18297;DHT22;18066;52.106;5.534;2022-12-11T01:10:11;3.30;99.90
18297;DHT22;18066;52.106;5.534;2022-12-11T01:12:52;3.60;99.90
18297;DHT22;18066;52.106;5.534;2022-12-11T01:15:23;3.40;99.90
18297;DHT22;18066;52.106;5.534;2022-12-11T01:17:51;3.40;99.90
18297;DHT22;18066;52.106;5.534;2022-12-11T01:20:18;3.40;99.90
18297;DHT22;18066;52.106;5.534;2022-12-11T01:22:46;3.50;99.90
18297;DHT22;18066;52.106;5.534;2022-12-11T01:25:13;3.90;99.90
18297;DHT22;18066;52.106;5.534;2022-12-11T01:27:40;3.90;99.90
18297;DHT22;18066;52.106;5.534;2022-12-11T01:30:08;3.20;99.90
18297;DHT22;18066;52.106;5.534;2022-12-11T01:32:36;3.40;99.90
18297;DHT22;18066;52.106;5.534;2022-12-11T01:35:04;3.50;99.90
18297;DHT22;18066;52.106;5.534;2022-12-11T01:37:32;3.30;99.90
18297;DHT22;18066;52.106;5.534;2022-12-11T01:39:59;3.50;99.90
18297;DHT22;18066;52.106;5.534;2022-12-11T01:42:27;3.60;99.90
18297;DHT22;18066;52.106;5.534;2022-12-11T01:45:26;3.70;99.90
18297;DHT22;18066;52.106;5.534;2022-12-11T01:48:00;3.30;99.90
18297;DHT22;18066;52.106;5.534;2022-12-11T01:50:28;3.30;99.90
18297;DHT22;18066;52.106;5.534;2022-12-11T01:52:56;3.30;99.90
18297;DHT22;18066;52.106;5.534;2022-12-11T01:55:24;3.10;99.90
18297;DHT22;18066;52.106;5.534;2022-12-11T01:57:51;3.20;99.90
18297;DHT22;18066;52.106;5.534;2022-12-11T02:00:19;3.20;99.90
18297;DHT22;18066;52.106;5.534;2022-12-11T02:02:46;3.40;99.90
18297;DHT22;18066;52.106;5.534;2022-12-11T02:05:15;3.30;99.90
18297;DHT22;18066;52.106;5.534;2022-12-11T02:07:45;3.00;99.90
18297;DHT22;18066;52.106;5.534;2022-12-11T02:10:14;2.90;99.90
18297;DHT22;18066;52.106;5.534;2022-12-11T02:12:51;2.90;99.90
18297;DHT22;18066;52.106;5.534;2022-12-11T02:15:25;2.90;99.90
18297;DHT22;18066;52.106;5.534;2022-12-11T02:18:00;3.00;99.90
18297;DHT22;18066;52.106;5.534;2022-12-11T02:20:33;3.00;99.90
18297;DHT22;18066;52.106;5.534;2022-12-11T02:26:06;3.00;99.90
18297;DHT22;18066;52.106;5.534;2022-12-11T02:28:39;3.20;99.90
18297;DHT22;18066;52.106;5.534;2022-12-11T02:31:12;3.20;99.90
18297;DHT22;18066;52.106;5.534;2022-12-11T02:33:42;3.30;99.90
18297;DHT22;18066;52.106;5.534;2022-12-11T02:36:11;3.50;99.90
18297;DHT22;18066;52.106;5.534;2022-12-11T02:38:42;3.70;99.90
18297;DHT22;18066;52.106;5.534;2022-12-11T02:41:16;3.50;99.90
18297;DHT22;18066;52.106;5.534;2022-12-11T02:43:47;3.60;99.90
18297;DHT22;18066;52.106;5.534;2022-12-11T02:46:17;3.50;99.90
18297;DHT22;18066;52.106;5.534;2022-12-11T02:48:46;3.30;99.90
18297;DHT22;18066;52.106;5.534;2022-12-11T02:51:16;3.10;99.90
18297;DHT22;18066;52.106;5.534;2022-12-11T02:53:44;3.60;99.90
18297;DHT22;18066;52.106;5.534;2022-12-11T02:56:15;3.30;99.90
18297;DHT22;18066;52.106;5.534;2022-12-11T02:58:48;3.30;99.90
18297;DHT22;18066;52.106;5.534;2022-12-11T03:01:17;3.40;99.90
18297;DHT22;18066;52.106;5.534;2022-12-11T03:03:44;3.40;99.90
18297;DHT22;18066;52.106;5.534;2022-12-11T03:06:13;3.20;99.90
18297;DHT22;18066;52.106;5.534;2022-12-11T03:08:43;3.50;99.90
18297;DHT22;18066;52.106;5.534;2022-12-11T03:11:09;3.30;99.90
18297;DHT22;18066;52.106;5.534;2022-12-11T03:13:37;3.50;99.90
18297;DHT22;18066;52.106;5.534;2022-12-11T03:16:12;3.60;99.90
18297;DHT22;18066;52.106;5.534;2022-12-11T03:18:47;3.60;99.90
18297;DHT22;18066;52.106;5.534;2022-12-11T03:21:21;3.70;99.90
18297;DHT22;18066;52.106;5.534;2022-12-11T03:23:52;3.70;99.90
18297;DHT22;18066;52.106;5.534;2022-12-11T03:26:21;4.00;99.90
18297;DHT22;18066;52.106;5.534;2022-12-11T03:28:55;3.90;99.90
18297;DHT22;18066;52.106;5.534;2022-12-11T03:31:27;4.00;99.90
18297;DHT22;18066;52.106;5.534;2022-12-11T03:33:57;4.00;99.90
18297;DHT22;18066;52.106;5.534;2022-12-11T03:36:30;4.00;99.90
18297;DHT22;18066;52.106;5.534;2022-12-11T03:39:00;4.10;99.90
18297;DHT22;18066;52.106;5.534;2022-12-11T03:41:28;4.00;99.90
18297;DHT22;18066;52.106;5.534;2022-12-11T03:43:57;4.10;99.90
18297;DHT22;18066;52.106;5.534;2022-12-11T03:46:29;4.00;99.90
18297;DHT22;18066;52.106;5.534;2022-12-11T03:49:00;4.00;99.90
18297;DHT22;18066;52.106;5.534;2022-12-11T03:51:28;4.00;99.90
18297;DHT22;18066;52.106;5.534;2022-12-11T03:53:57;3.80;99.90
18297;DHT22;18066;52.106;5.534;2022-12-11T03:56:25;3.60;99.90
18297;DHT22;18066;52.106;5.534;2022-12-11T03:58:52;3.40;99.90
18297;DHT22;18066;52.106;5.534;2022-12-11T04:01:19;3.30;99.90
18297;DHT22;18066;52.106;5.534;2022-12-11T04:03:47;3.00;99.90
18297;DHT22;18066;52.106;5.534;2022-12-11T04:06:14;3.00;99.90
18297;DHT22;18066;52.106;5.534;2022-12-11T04:08:41;2.90;99.90
18297;DHT22;18066;52.106;5.534;2022-12-11T04:11:09;2.90;99.90
18297;DHT22;18066;52.106;5.534;2022-12-11T04:13:53;2.90;99.90
18297;DHT22;18066;52.106;5.534;2022-12-11T04:16:34;2.90;99.90
18297;DHT22;18066;52.106;5.534;2022-12-11T04:19:02;2.90;99.90
18297;DHT22;18066;52.106;5.534;2022-12-11T04:21:46;2.90;99.90
18297;DHT22;18066;52.106;5.534;2022-12-11T04:24:31;2.90;99.90
18297;DHT22;18066;52.106;5.534;2022-12-11T04:26:58;2.90;99.90
18297;DHT22;18066;52.106;5.534;2022-12-11T04:29:25;3.00;99.90
18297;DHT22;18066;52.106;5.534;2022-12-11T04:31:52;3.20;99.90
18297;DHT22;18066;52.106;5.534;2022-12-11T04:34:20;3.30;99.90
18297;DHT22;18066;52.106;5.534;2022-12-11T04:36:47;3.20;99.90
18297;DHT22;18066;52.106;5.534;2022-12-11T04:39:14;3.40;99.90
18297;DHT22;18066;52.106;5.534;2022-12-11T04:41:41;3.40;99.90
18297;DHT22;18066;52.106;5.534;2022-12-11T04:44:08;3.30;99.90
18297;DHT22;18066;52.106;5.534;2022-12-11T04:46:35;3.30;99.90
18297;DHT22;18066;52.106;5.534;2022-12-11T04:49:02;3.50;99.90
18297;DHT22;18066;52.106;5.534;2022-12-11T04:51:30;3.70;99.90
18297;DHT22;18066;52.106;5.534;2022-12-11T04:53:57;3.90;99.90
18297;DHT22;18066;52.106;5.534;2022-12-11T04:56:24;4.10;99.90
18297;DHT22;18066;52.106;5.534;2022-12-11T04:58:51;4.20;99.90
18297;DHT22;18066;52.106;5.534;2022-12-11T05:01:20;4.20;99.90
18297;DHT22;18066;52.106;5.534;2022-12-11T05:03:47;4.30;99.90
18297;DHT22;18066;52.106;5.534;2022-12-11T05:06:17;4.50;99.90
18297;DHT22;18066;52.106;5.534;2022-12-11T05:08:45;4.10;99.90
18297;DHT22;18066;52.106;5.534;2022-12-11T05:11:14;4.00;99.90
18297;DHT22;18066;52.106;5.534;2022-12-11T05:13:41;3.90;99.90
18297;DHT22;18066;52.106;5.534;2022-12-11T05:16:10;3.80;99.90
18297;DHT22;18066;52.106;5.534;2022-12-11T05:18:38;3.60;99.90
18297;DHT22;18066;52.106;5.534;2022-12-11T05:21:07;3.40;99.90
18297;DHT22;18066;52.106;5.534;2022-12-11T05:23:34;3.30;99.90
18297;DHT22;18066;52.106;5.534;2022-12-11T05:26:04;3.20;99.90
18297;DHT22;18066;52.106;5.534;2022-12-11T05:28:32;3.20;99.90
18297;DHT22;18066;52.106;5.534;2022-12-11T05:31:02;3.10;99.90
18297;DHT22;18066;52.106;5.534;2022-12-11T05:33:29;3.10;99.90
18297;DHT22;18066;52.106;5.534;2022-12-11T05:35:56;3.20;99.90
18297;DHT22;18066;52.106;5.534;2022-12-11T05:38:23;3.10;99.90
18297;DHT22;18066;52.106;5.534;2022-12-11T05:40:56;3.00;99.90
18297;DHT22;18066;52.106;5.534;2022-12-11T05:43:27;3.20;99.90
18297;DHT22;18066;52.106;5.534;2022-12-11T05:45:54;3.10;99.90
18297;DHT22;18066;52.106;5.534;2022-12-11T05:48:21;3.20;99.90
18297;DHT22;18066;52.106;5.534;2022-12-11T05:50:56;3.40;99.90
18297;DHT22;18066;52.106;5.534;2022-12-11T05:53:23;3.60;99.90
18297;DHT22;18066;52.106;5.534;2022-12-11T05:55:50;3.60;99.90
18297;DHT22;18066;52.106;5.534;2022-12-11T05:58:18;3.40;99.90
18297;DHT22;18066;52.106;5.534;2022-12-11T06:00:47;3.40;99.90
18297;DHT22;18066;52.106;5.534;2022-12-11T06:03:13;3.50;99.90
18297;DHT22;18066;52.106;5.534;2022-12-11T06:05:41;3.60;99.90
18297;DHT22;18066;52.106;5.534;2022-12-11T06:08:08;3.70;99.90
18297;DHT22;18066;52.106;5.534;2022-12-11T06:10:35;3.80;99.90
18297;DHT22;18066;52.106;5.534;2022-12-11T06:13:02;3.80;99.90
18297;DHT22;18066;52.106;5.534;2022-12-11T06:15:29;3.80;99.90
18297;DHT22;18066;52.106;5.534;2022-12-11T06:17:57;3.90;99.90
18297;DHT22;18066;52.106;5.534;2022-12-11T06:20:24;3.70;99.90
18297;DHT22;18066;52.106;5.534;2022-12-11T06:22:51;3.80;99.90
18297;DHT22;18066;52.106;5.534;2022-12-11T06:25:17;3.80;99.90
18297;DHT22;18066;52.106;5.534;2022-12-11T06:27:44;3.70;99.90
18297;DHT22;18066;52.106;5.534;2022-12-11T06:30:12;3.70;99.90
18297;DHT22;18066;52.106;5.534;2022-12-11T06:32:38;3.60;99.90
18297;DHT22;18066;52.106;5.534;2022-12-11T06:35:07;3.70;99.90
18297;DHT22;18066;52.106;5.534;2022-12-11T06:37:34;3.70;99.90
18297;DHT22;18066;52.106;5.534;2022-12-11T06:40:02;3.70;99.90
18297;DHT22;18066;52.106;5.534;2022-12-11T06:42:30;3.60;99.90
18297;DHT22;18066;52.106;5.534;2022-12-11T06:44:57;3.50;99.90
18297;DHT22;18066;52.106;5.534;2022-12-11T06:47:24;3.50;99.90
18297;DHT22;18066;52.106;5.534;2022-12-11T06:49:51;3.30;99.90
18297;DHT22;18066;52.106;5.534;2022-12-11T06:52:20;3.20;99.90
18297;DHT22;18066;52.106;5.534;2022-12-11T06:54:47;3.10;99.90
18297;DHT22;18066;52.106;5.534;2022-12-11T06:57:14;3.00;99.90
18297;DHT22;18066;52.106;5.534;2022-12-11T06:59:41;2.90;99.90
18297;DHT22;18066;52.106;5.534;2022-12-11T07:02:11;2.80;99.90
18297;DHT22;18066;52.106;5.534;2022-12-11T07:04:38;2.80;99.90
18297;DHT22;18066;52.106;5.534;2022-12-11T07:07:05;2.70;99.90
18297;DHT22;18066;52.106;5.534;2022-12-11T07:09:34;2.70;99.90
18297;DHT22;18066;52.106;5.534;2022-12-11T07:12:01;2.70;99.90
18297;DHT22;18066;52.106;5.534;2022-12-11T07:14:28;2.60;99.90
18297;DHT22;18066;52.106;5.534;2022-12-11T07:16:55;2.60;99.90
18297;DHT22;18066;52.106;5.534;2022-12-11T07:19:22;2.50;99.90
18297;DHT22;18066;52.106;5.534;2022-12-11T07:21:50;2.60;99.90
18297;DHT22;18066;52.106;5.534;2022-12-11T07:24:17;2.60;99.90
18297;DHT22;18066;52.106;5.534;2022-12-11T07:26:45;2.70;99.90
18297;DHT22;18066;52.106;5.534;2022-12-11T07:29:12;2.60;99.90
18297;DHT22;18066;52.106;5.534;2022-12-11T07:31:39;2.50;99.90
18297;DHT22;18066;52.106;5.534;2022-12-11T07:34:06;2.20;99.90
18297;DHT22;18066;52.106;5.534;2022-12-11T07:36:33;2.20;99.90
18297;DHT22;18066;52.106;5.534;2022-12-11T07:39:00;2.10;99.90
18297;DHT22;18066;52.106;5.534;2022-12-11T07:41:27;2.30;99.90
18297;DHT22;18066;52.106;5.534;2022-12-11T07:43:58;2.50;99.90
18297;DHT22;18066;52.106;5.534;2022-12-11T07:46:27;3.30;99.90
18297;DHT22;18066;52.106;5.534;2022-12-11T07:48:54;3.40;99.90
18297;DHT22;18066;52.106;5.534;2022-12-11T07:51:22;3.00;99.90
18297;DHT22;18066;52.106;5.534;2022-12-11T07:53:53;3.40;99.90
18297;DHT22;18066;52.106;5.534;2022-12-11T07:56:20;2.90;99.90
18297;DHT22;18066;52.106;5.534;2022-12-11T07:58:47;2.70;99.90
18297;DHT22;18066;52.106;5.534;2022-12-11T08:01:17;2.70;99.90
18297;DHT22;18066;52.106;5.534;2022-12-11T08:03:45;2.90;99.90
18297;DHT22;18066;52.106;5.534;2022-12-11T08:06:12;3.00;99.90
18297;DHT22;18066;52.106;5.534;2022-12-11T08:08:40;3.10;99.90
18297;DHT22;18066;52.106;5.534;2022-12-11T08:11:10;3.20;99.90
18297;DHT22;18066;52.106;5.534;2022-12-11T08:13:37;3.40;99.90
18297;DHT22;18066;52.106;5.534;2022-12-11T08:16:05;3.20;99.90
18297;DHT22;18066;52.106;5.534;2022-12-11T08:18:34;2.90;99.90
18297;DHT22;18066;52.106;5.534;2022-12-11T08:21:04;2.90;99.90
18297;DHT22;18066;52.106;5.534;2022-12-11T08:23:31;2.90;99.90
18297;DHT22;18066;52.106;5.534;2022-12-11T08:26:00;2.80;99.90
18297;DHT22;18066;52.106;5.534;2022-12-11T08:28:28;2.60;99.90
18297;DHT22;18066;52.106;5.534;2022-12-11T08:30:55;2.60;99.90
18297;DHT22;18066;52.106;5.534;2022-12-11T08:33:22;2.60;99.90
18297;DHT22;18066;52.106;5.534;2022-12-11T08:35:51;2.50;99.90
18297;DHT22;18066;52.106;5.534;2022-12-11T08:38:17;2.40;99.90
18297;DHT22;18066;52.106;5.534;2022-12-11T08:40:44;2.50;99.90
18297;DHT22;18066;52.106;5.534;2022-12-11T08:43:11;2.40;99.90
18297;DHT22;18066;52.106;5.534;2022-12-11T08:45:38;2.30;99.90
18297;DHT22;18066;52.106;5.534;2022-12-11T08:48:05;2.20;99.90
18297;DHT22;18066;52.106;5.534;2022-12-11T08:50:32;2.10;99.90
18297;DHT22;18066;52.106;5.534;2022-12-11T08:53:00;2.00;99.90
18297;DHT22;18066;52.106;5.534;2022-12-11T08:55:27;2.00;99.90
18297;DHT22;18066;52.106;5.534;2022-12-11T08:57:53;2.00;99.90
18297;DHT22;18066;52.106;5.534;2022-12-11T09:00:21;1.90;99.90
18297;DHT22;18066;52.106;5.534;2022-12-11T09:02:48;2.00;99.90
18297;DHT22;18066;52.106;5.534;2022-12-11T09:05:15;2.30;99.90
18297;DHT22;18066;52.106;5.534;2022-12-11T09:07:42;1.90;99.90
18297;DHT22;18066;52.106;5.534;2022-12-11T09:10:11;1.70;99.90
18297;DHT22;18066;52.106;5.534;2022-12-11T09:12:38;1.90;99.90
18297;DHT22;18066;52.106;5.534;2022-12-11T09:15:05;1.90;99.90
18297;DHT22;18066;52.106;5.534;2022-12-11T09:17:33;2.50;99.90
18297;DHT22;18066;52.106;5.534;2022-12-11T09:20:00;2.50;99.90
18297;DHT22;18066;52.106;5.534;2022-12-11T09:22:27;3.00;99.90
18297;DHT22;18066;52.106;5.534;2022-12-11T09:24:53;2.70;99.90
18297;DHT22;18066;52.106;5.534;2022-12-11T09:27:22;2.90;99.90
18297;DHT22;18066;52.106;5.534;2022-12-11T09:29:48;3.10;99.90
18297;DHT22;18066;52.106;5.534;2022-12-11T09:32:16;3.20;99.90
18297;DHT22;18066;52.106;5.534;2022-12-11T09:34:43;3.60;99.90
18297;DHT22;18066;52.106;5.534;2022-12-11T09:37:10;3.90;99.90
18297;DHT22;18066;52.106;5.534;2022-12-11T09:39:36;4.10;99.90
18297;DHT22;18066;52.106;5.534;2022-12-11T09:42:07;4.20;99.90
18297;DHT22;18066;52.106;5.534;2022-12-11T09:44:41;4.30;99.90
18297;DHT22;18066;52.106;5.534;2022-12-11T09:47:20;4.30;99.90
18297;DHT22;18066;52.106;5.534;2022-12-11T09:49:51;4.40;99.90
18297;DHT22;18066;52.106;5.534;2022-12-11T09:52:24;4.50;99.90
18297;DHT22;18066;52.106;5.534;2022-12-11T09:54:57;4.60;99.90
18297;DHT22;18066;52.106;5.534;2022-12-11T09:57:34;4.80;99.90
18297;DHT22;18066;52.106;5.534;2022-12-11T10:00:19;4.80;99.90
18297;DHT22;18066;52.106;5.534;2022-12-11T10:03:05;4.90;99.90
18297;DHT22;18066;52.106;5.534;2022-12-11T10:05:41;5.00;99.90
18297;DHT22;18066;52.106;5.534;2022-12-11T10:08:18;5.00;99.90
18297;DHT22;18066;52.106;5.534;2022-12-11T10:10:52;5.20;99.90
18297;DHT22;18066;52.106;5.534;2022-12-11T10:13:31;5.10;99.90
18297;DHT22;18066;52.106;5.534;2022-12-11T10:16:10;5.10;99.90
18297;DHT22;18066;52.106;5.534;2022-12-11T10:18:43;5.10;99.90
18297;DHT22;18066;52.106;5.534;2022-12-11T10:21:11;5.20;99.90
18297;DHT22;18066;52.106;5.534;2022-12-11T10:23:44;5.20;99.90
18297;DHT22;18066;52.106;5.534;2022-12-11T10:26:16;5.30;99.90
18297;DHT22;18066;52.106;5.534;2022-12-11T10:28:43;5.30;99.90
18297;DHT22;18066;52.106;5.534;2022-12-11T10:31:15;5.30;99.90
18297;DHT22;18066;52.106;5.534;2022-12-11T10:33:52;5.40;99.90
18297;DHT22;18066;52.106;5.534;2022-12-11T10:36:26;5.40;99.90
18297;DHT22;18066;52.106;5.534;2022-12-11T10:38:53;5.30;99.90
18297;DHT22;18066;52.106;5.534;2022-12-11T10:41:22;5.40;99.90
18297;DHT22;18066;52.106;5.534;2022-12-11T10:43:51;5.40;99.90
18297;DHT22;18066;52.106;5.534;2022-12-11T10:46:22;5.40;99.90
18297;DHT22;18066;52.106;5.534;2022-12-11T10:48:50;5.50;99.90
18297;DHT22;18066;52.106;5.534;2022-12-11T10:51:20;5.40;99.90
18297;DHT22;18066;52.106;5.534;2022-12-11T10:53:52;5.50;99.90
18297;DHT22;18066;52.106;5.534;2022-12-11T10:56:27;5.30;99.90
18297;DHT22;18066;52.106;5.534;2022-12-11T10:58:55;5.30;99.90
18297;DHT22;18066;52.106;5.534;2022-12-11T11:01:26;5.30;99.90
18297;DHT22;18066;52.106;5.534;2022-12-11T11:03:56;5.40;99.90
18297;DHT22;18066;52.106;5.534;2022-12-11T11:06:24;5.50;99.90
18297;DHT22;18066;52.106;5.534;2022-12-11T11:08:53;5.50;99.90
18297;DHT22;18066;52.106;5.534;2022-12-11T11:11:24;5.50;99.90
18297;DHT22;18066;52.106;5.534;2022-12-11T11:13:52;5.50;99.90
18297;DHT22;18066;52.106;5.534;2022-12-11T11:16:30;5.50;99.90
18297;DHT22;18066;52.106;5.534;2022-12-11T11:18:57;5.50;99.90
18297;DHT22;18066;52.106;5.534;2022-12-11T11:21:25;5.60;99.90
18297;DHT22;18066;52.106;5.534;2022-12-11T11:23:54;5.60;99.90
18297;DHT22;18066;52.106;5.534;2022-12-11T11:26:21;5.70;99.90
18297;DHT22;18066;52.106;5.534;2022-12-11T11:28:51;5.70;99.90
18297;DHT22;18066;52.106;5.534;2022-12-11T11:31:18;5.70;99.90
18297;DHT22;18066;52.106;5.534;2022-12-11T11:33:53;5.70;99.90
18297;DHT22;18066;52.106;5.534;2022-12-11T11:36:23;5.40;99.90
18297;DHT22;18066;52.106;5.534;2022-12-11T11:39:06;5.40;99.90
18297;DHT22;18066;52.106;5.534;2022-12-11T11:41:43;5.40;99.90
18297;DHT22;18066;52.106;5.534;2022-12-11T11:44:15;5.50;99.90
18297;DHT22;18066;52.106;5.534;2022-12-11T11:46:48;5.40;99.90
18297;DHT22;18066;52.106;5.534;2022-12-11T11:49:30;5.70;99.90
18297;DHT22;18066;52.106;5.534;2022-12-11T11:52:08;5.40;99.90
18297;DHT22;18066;52.106;5.534;2022-12-11T11:54:40;5.20;99.90
18297;DHT22;18066;52.106;5.534;2022-12-11T11:57:14;5.30;99.90
18297;DHT22;18066;52.106;5.534;2022-12-11T11:59:46;5.30;99.90
18297;DHT22;18066;52.106;5.534;2022-12-11T12:02:16;5.20;99.90
18297;DHT22;18066;52.106;5.534;2022-12-11T12:04:45;5.40;99.90
18297;DHT22;18066;52.106;5.534;2022-12-11T12:07:23;5.00;99.90
18297;DHT22;18066;52.106;5.534;2022-12-11T12:09:59;5.30;99.90
18297;DHT22;18066;52.106;5.534;2022-12-11T12:12:36;5.20;99.90
18297;DHT22;18066;52.106;5.534;2022-12-11T12:15:14;5.20;99.90
18297;DHT22;18066;52.106;5.534;2022-12-11T12:17:50;5.20;99.90
18297;DHT22;18066;52.106;5.534;2022-12-11T12:20:27;5.30;99.90
18297;DHT22;18066;52.106;5.534;2022-12-11T12:23:02;5.20;99.90
18297;DHT22;18066;52.106;5.534;2022-12-11T12:25:38;5.20;99.90
18297;DHT22;18066;52.106;5.534;2022-12-11T12:28:15;4.90;99.90
18297;DHT22;18066;52.106;5.534;2022-12-11T12:30:55;4.70;99.90
18297;DHT22;18066;52.106;5.534;2022-12-11T12:33:33;4.30;99.90
18297;DHT22;18066;52.106;5.534;2022-12-11T12:36:12;4.10;99.90
18297;DHT22;18066;52.106;5.534;2022-12-11T12:38:49;4.10;99.90
18297;DHT22;18066;52.106;5.534;2022-12-11T12:41:22;4.10;99.90
18297;DHT22;18066;52.106;5.534;2022-12-11T12:46:46;4.20;99.90
18297;DHT22;18066;52.106;5.534;2022-12-11T12:49:18;4.60;99.90
18297;DHT22;18066;52.106;5.534;2022-12-11T12:51:49;4.40;99.90
18297;DHT22;18066;52.106;5.534;2022-12-11T12:54:17;4.30;99.90
18297;DHT22;18066;52.106;5.534;2022-12-11T12:56:46;4.20;99.90
18297;DHT22;18066;52.106;5.534;2022-12-11T12:59:22;4.10;99.90
18297;DHT22;18066;52.106;5.534;2022-12-11T13:01:52;4.10;99.90
18297;DHT22;18066;52.106;5.534;2022-12-11T13:04:34;4.30;99.90
18297;DHT22;18066;52.106;5.534;2022-12-11T13:07:13;4.50;99.90
18297;DHT22;18066;52.106;5.534;2022-12-11T13:09:41;4.50;99.90
18297;DHT22;18066;52.106;5.534;2022-12-11T13:12:13;4.50;99.90
18297;DHT22;18066;52.106;5.534;2022-12-11T13:14:42;4.60;99.90
18297;DHT22;18066;52.106;5.534;2022-12-11T13:17:34;4.80;99.90
18297;DHT22;18066;52.106;5.534;2022-12-11T13:20:12;4.80;99.90
18297;DHT22;18066;52.106;5.534;2022-12-11T13:22:55;4.90;99.90
18297;DHT22;18066;52.106;5.534;2022-12-11T13:25:29;5.00;99.90
18297;DHT22;18066;52.106;5.534;2022-12-11T13:28:17;5.00;99.90
18297;DHT22;18066;52.106;5.534;2022-12-11T13:30:59;4.80;99.90
18297;DHT22;18066;52.106;5.534;2022-12-11T13:33:26;4.80;99.90
18297;DHT22;18066;52.106;5.534;2022-12-11T13:39:02;4.50;99.90
18297;DHT22;18066;52.106;5.534;2022-12-11T13:41:33;4.60;99.90
18297;DHT22;18066;52.106;5.534;2022-12-11T13:44:02;4.70;99.90
18297;DHT22;18066;52.106;5.534;2022-12-11T13:46:32;4.60;99.90
18297;DHT22;18066;52.106;5.534;2022-12-11T13:49:02;4.60;99.90
18297;DHT22;18066;52.106;5.534;2022-12-11T13:51:32;4.70;99.90
18297;DHT22;18066;52.106;5.534;2022-12-11T13:54:15;4.80;99.90
18297;DHT22;18066;52.106;5.534;2022-12-11T13:56:53;4.90;99.90
18297;DHT22;18066;52.106;5.534;2022-12-11T13:59:24;4.80;99.90
18297;DHT22;18066;52.106;5.534;2022-12-11T14:01:53;4.90;99.90
18297;DHT22;18066;52.106;5.534;2022-12-11T14:04:21;4.90;99.90
18297;DHT22;18066;52.106;5.534;2022-12-11T14:06:49;5.00;99.90
18297;DHT22;18066;52.106;5.534;2022-12-11T14:09:21;5.00;99.90
18297;DHT22;18066;52.106;5.534;2022-12-11T14:11:49;5.00;99.90
18297;DHT22;18066;52.106;5.534;2022-12-11T14:14:19;4.80;99.90
18297;DHT22;18066;52.106;5.534;2022-12-11T14:16:49;4.70;99.90
18297;DHT22;18066;52.106;5.534;2022-12-11T14:19:18;4.40;99.90
18297;DHT22;18066;52.106;5.534;2022-12-11T14:22:00;4.40;99.90
18297;DHT22;18066;52.106;5.534;2022-12-11T14:24:28;4.50;99.90
18297;DHT22;18066;52.106;5.534;2022-12-11T14:26:56;4.60;99.90
18297;DHT22;18066;52.106;5.534;2022-12-11T14:29:28;4.80;99.90
18297;DHT22;18066;52.106;5.534;2022-12-11T14:31:59;4.70;99.90
18297;DHT22;18066;52.106;5.534;2022-12-11T14:34:31;4.60;99.90
18297;DHT22;18066;52.106;5.534;2022-12-11T14:37:02;4.60;99.90
18297;DHT22;18066;52.106;5.534;2022-12-11T14:39:35;4.60;99.90
18297;DHT22;18066;52.106;5.534;2022-12-11T14:42:09;4.70;99.90
18297;DHT22;18066;52.106;5.534;2022-12-11T14:44:44;4.80;99.90
18297;DHT22;18066;52.106;5.534;2022-12-11T14:47:15;4.90;99.90
18297;DHT22;18066;52.106;5.534;2022-12-11T14:49:47;5.00;99.90
18297;DHT22;18066;52.106;5.534;2022-12-11T14:52:18;5.10;99.90
18297;DHT22;18066;52.106;5.534;2022-12-11T14:54:51;5.10;99.90
18297;DHT22;18066;52.106;5.534;2022-12-11T14:57:21;5.20;99.90
18297;DHT22;18066;52.106;5.534;2022-12-11T14:59:50;5.10;99.90
18297;DHT22;18066;52.106;5.534;2022-12-11T15:02:24;5.20;99.90
18297;DHT22;18066;52.106;5.534;2022-12-11T15:05:10;5.20;99.90
18297;DHT22;18066;52.106;5.534;2022-12-11T15:07:38;5.20;99.90
18297;DHT22;18066;52.106;5.534;2022-12-11T15:10:21;5.20;99.90
18297;DHT22;18066;52.106;5.534;2022-12-11T15:12:48;5.10;99.90
18297;DHT22;18066;52.106;5.534;2022-12-11T15:15:16;5.10;99.90
18297;DHT22;18066;52.106;5.534;2022-12-11T15:17:44;5.10;99.90
18297;DHT22;18066;52.106;5.534;2022-12-11T15:20:22;5.00;99.90
18297;DHT22;18066;52.106;5.534;2022-12-11T15:22:49;5.00;99.90
18297;DHT22;18066;52.106;5.534;2022-12-11T15:25:20;5.00;99.90
18297;DHT22;18066;52.106;5.534;2022-12-11T15:27:50;5.00;99.90
18297;DHT22;18066;52.106;5.534;2022-12-11T15:30:29;5.10;99.90
18297;DHT22;18066;52.106;5.534;2022-12-11T15:33:19;5.10;99.90
18297;DHT22;18066;52.106;5.534;2022-12-11T15:35:58;5.10;99.90
18297;DHT22;18066;52.106;5.534;2022-12-11T15:38:31;5.20;99.90
18297;DHT22;18066;52.106;5.534;2022-12-11T15:41:00;5.10;99.90
18297;DHT22;18066;52.106;5.534;2022-12-11T15:43:30;5.20;99.90
18297;DHT22;18066;52.106;5.534;2022-12-11T15:45:57;5.10;99.90
18297;DHT22;18066;52.106;5.534;2022-12-11T15:48:24;5.00;99.90
18297;DHT22;18066;52.106;5.534;2022-12-11T15:50:51;4.90;99.90
18297;DHT22;18066;52.106;5.534;2022-12-11T15:53:18;5.10;99.90
18297;DHT22;18066;52.106;5.534;2022-12-11T15:55:45;5.20;99.90
18297;DHT22;18066;52.106;5.534;2022-12-11T15:58:16;5.10;99.90
18297;DHT22;18066;52.106;5.534;2022-12-11T16:00:44;5.40;99.90
18297;DHT22;18066;52.106;5.534;2022-12-11T16:03:12;5.20;99.90
18297;DHT22;18066;52.106;5.534;2022-12-11T16:05:40;5.30;99.90
18297;DHT22;18066;52.106;5.534;2022-12-11T16:08:11;5.20;99.90
18297;DHT22;18066;52.106;5.534;2022-12-11T16:10:39;5.40;99.90
18297;DHT22;18066;52.106;5.534;2022-12-11T16:13:06;5.20;99.90